sensor_id;sensor_type;location;lat;lon;timestamp;temperature;humidity
37594;DHT22;23441;50.856;6.076;2022-07-21T00:01:09;18.30;99.90
37594;DHT22;23441;50.856;6.076;2022-07-21T00:03:35;18.30;99.90
37594;DHT22;23441;50.856;6.076;2022-07-21T00:06:01;18.20;99.90
37594;DHT22;23441;50.856;6.076;2022-07-21T00:08:28;18.20;99.90
37594;DHT22;23441;50.856;6.076;2022-07-21T00:10:54;18.20;99.90
37594;DHT22;23441;50.856;6.076;2022-07-21T00:13:20;18.10;99.90
37594;DHT22;23441;50.856;6.076;2022-07-21T00:15:47;18.10;99.90
37594;DHT22;23441;50.856;6.076;2022-07-21T00:18:13;18.10;99.90
37594;DHT22;23441;50.856;6.076;2022-07-21T00:20:39;18.10;99.90
37594;DHT22;23441;50.856;6.076;2022-07-21T00:23:05;18.10;99.90
37594;DHT22;23441;50.856;6.076;2022-07-21T00:25:31;18.10;99.90
37594;DHT22;23441;50.856;6.076;2022-07-21T00:27:57;18.10;99.90
37594;DHT22;23441;50.856;6.076;2022-07-21T00:30:23;18.10;99.90
37594;DHT22;23441;50.856;6.076;2022-07-21T00:32:49;18.10;99.90
37594;DHT22;23441;50.856;6.076;2022-07-21T00:35:15;18.10;99.90
37594;DHT22;23441;50.856;6.076;2022-07-21T00:37:41;18.10;99.90
37594;DHT22;23441;50.856;6.076;2022-07-21T00:40:09;18.10;99.90
37594;DHT22;23441;50.856;6.076;2022-07-21T00:42:37;18.20;99.90
37594;DHT22;23441;50.856;6.076;2022-07-21T00:45:05;18.20;99.90
37594;DHT22;23441;50.856;6.076;2022-07-21T00:47:32;18.20;99.90
37594;DHT22;23441;50.856;6.076;2022-07-21T00:50:01;18.20;99.90
37594;DHT22;23441;50.856;6.076;2022-07-21T00:52:28;18.10;99.90
37594;DHT22;23441;50.856;6.076;2022-07-21T00:54:54;18.10;99.90
37594;DHT22;23441;50.856;6.076;2022-07-21T00:57:20;18.20;99.90
37594;DHT22;23441;50.856;6.076;2022-07-21T00:59:46;18.20;99.90
37594;DHT22;23441;50.856;6.076;2022-07-21T01:02:12;18.10;99.90
37594;DHT22;23441;50.856;6.076;2022-07-21T01:04:39;18.20;99.90
37594;DHT22;23441;50.856;6.076;2022-07-21T01:07:05;18.10;99.90
37594;DHT22;23441;50.856;6.076;2022-07-21T01:09:33;18.10;99.90
37594;DHT22;23441;50.856;6.076;2022-07-21T01:12:00;18.00;99.90
37594;DHT22;23441;50.856;6.076;2022-07-21T01:14:26;18.10;99.90
37594;DHT22;23441;50.856;6.076;2022-07-21T01:16:52;18.00;99.90
37594;DHT22;23441;50.856;6.076;2022-07-21T01:19:18;18.00;99.90
37594;DHT22;23441;50.856;6.076;2022-07-21T01:21:46;18.00;99.90
37594;DHT22;23441;50.856;6.076;2022-07-21T01:24:13;17.90;99.90
37594;DHT22;23441;50.856;6.076;2022-07-21T01:26:42;17.90;99.90
37594;DHT22;23441;50.856;6.076;2022-07-21T01:29:08;17.90;99.90
37594;DHT22;23441;50.856;6.076;2022-07-21T01:31:36;18.00;99.90
37594;DHT22;23441;50.856;6.076;2022-07-21T01:34:03;18.00;99.90
37594;DHT22;23441;50.856;6.076;2022-07-21T01:36:29;18.00;99.90
37594;DHT22;23441;50.856;6.076;2022-07-21T01:38:55;18.00;99.90
37594;DHT22;23441;50.856;6.076;2022-07-21T01:41:40;17.90;99.90
37594;DHT22;23441;50.856;6.076;2022-07-21T01:44:08;17.90;99.90
37594;DHT22;23441;50.856;6.076;2022-07-21T01:46:39;17.90;99.90
37594;DHT22;23441;50.856;6.076;2022-07-21T01:49:07;17.90;99.90
37594;DHT22;23441;50.856;6.076;2022-07-21T01:51:33;17.90;99.90
37594;DHT22;23441;50.856;6.076;2022-07-21T01:53:59;17.90;99.90
37594;DHT22;23441;50.856;6.076;2022-07-21T01:56:26;17.80;99.90
37594;DHT22;23441;50.856;6.076;2022-07-21T01:58:54;17.90;99.90
37594;DHT22;23441;50.856;6.076;2022-07-21T02:01:22;17.90;99.90
37594;DHT22;23441;50.856;6.076;2022-07-21T02:03:53;17.90;99.90
37594;DHT22;23441;50.856;6.076;2022-07-21T02:06:20;17.80;99.90
37594;DHT22;23441;50.856;6.076;2022-07-21T02:08:47;17.80;99.90
37594;DHT22;23441;50.856;6.076;2022-07-21T02:11:13;17.90;99.90
37594;DHT22;23441;50.856;6.076;2022-07-21T02:13:39;17.90;99.90
37594;DHT22;23441;50.856;6.076;2022-07-21T02:16:06;17.80;99.90
37594;DHT22;23441;50.856;6.076;2022-07-21T02:18:32;17.90;99.90
37594;DHT22;23441;50.856;6.076;2022-07-21T02:20:58;17.90;99.90
37594;DHT22;23441;50.856;6.076;2022-07-21T02:23:24;17.90;99.90
37594;DHT22;23441;50.856;6.076;2022-07-21T02:25:52;17.90;99.90
37594;DHT22;23441;50.856;6.076;2022-07-21T02:28:20;18.00;99.90
37594;DHT22;23441;50.856;6.076;2022-07-21T02:30:46;18.00;99.90
37594;DHT22;23441;50.856;6.076;2022-07-21T02:33:13;18.00;99.90
37594;DHT22;23441;50.856;6.076;2022-07-21T02:35:40;18.00;99.90
37594;DHT22;23441;50.856;6.076;2022-07-21T02:38:07;18.10;99.90
37594;DHT22;23441;50.856;6.076;2022-07-21T02:40:34;18.10;99.90
37594;DHT22;23441;50.856;6.076;2022-07-21T02:43:00;18.00;99.90
37594;DHT22;23441;50.856;6.076;2022-07-21T02:45:26;18.00;99.90
37594;DHT22;23441;50.856;6.076;2022-07-21T02:47:56;18.00;99.90
37594;DHT22;23441;50.856;6.076;2022-07-21T02:50:31;18.00;99.90
37594;DHT22;23441;50.856;6.076;2022-07-21T02:53:01;17.90;99.90
37594;DHT22;23441;50.856;6.076;2022-07-21T02:55:31;17.90;99.90
37594;DHT22;23441;50.856;6.076;2022-07-21T02:58:15;18.00;99.90
37594;DHT22;23441;50.856;6.076;2022-07-21T03:00:44;18.00;99.90
37594;DHT22;23441;50.856;6.076;2022-07-21T03:03:11;18.00;99.90
37594;DHT22;23441;50.856;6.076;2022-07-21T03:05:37;18.10;99.90
37594;DHT22;23441;50.856;6.076;2022-07-21T03:08:05;18.10;99.90
37594;DHT22;23441;50.856;6.076;2022-07-21T03:10:32;18.10;99.90
37594;DHT22;23441;50.856;6.076;2022-07-21T03:12:58;18.00;99.90
37594;DHT22;23441;50.856;6.076;2022-07-21T03:15:25;18.10;99.90
37594;DHT22;23441;50.856;6.076;2022-07-21T03:17:53;18.10;99.90
37594;DHT22;23441;50.856;6.076;2022-07-21T03:20:21;18.10;99.90
37594;DHT22;23441;50.856;6.076;2022-07-21T03:22:50;18.00;99.90
37594;DHT22;23441;50.856;6.076;2022-07-21T03:25:17;18.10;99.90
37594;DHT22;23441;50.856;6.076;2022-07-21T03:27:43;18.10;99.90
37594;DHT22;23441;50.856;6.076;2022-07-21T03:30:10;18.10;99.90
37594;DHT22;23441;50.856;6.076;2022-07-21T03:32:37;18.10;99.90
37594;DHT22;23441;50.856;6.076;2022-07-21T03:35:05;18.10;99.90
37594;DHT22;23441;50.856;6.076;2022-07-21T03:37:32;18.10;99.90
37594;DHT22;23441;50.856;6.076;2022-07-21T03:39:58;18.10;99.90
37594;DHT22;23441;50.856;6.076;2022-07-21T03:42:24;18.10;99.90
37594;DHT22;23441;50.856;6.076;2022-07-21T03:44:50;18.10;99.90
37594;DHT22;23441;50.856;6.076;2022-07-21T03:47:16;18.10;99.90
37594;DHT22;23441;50.856;6.076;2022-07-21T03:49:42;18.00;99.90
37594;DHT22;23441;50.856;6.076;2022-07-21T03:52:08;18.10;99.90
37594;DHT22;23441;50.856;6.076;2022-07-21T03:54:34;18.10;99.90
37594;DHT22;23441;50.856;6.076;2022-07-21T03:57:00;18.10;99.90
37594;DHT22;23441;50.856;6.076;2022-07-21T03:59:25;18.10;99.90
37594;DHT22;23441;50.856;6.076;2022-07-21T04:01:51;18.00;99.90
37594;DHT22;23441;50.856;6.076;2022-07-21T04:04:17;18.00;99.90
37594;DHT22;23441;50.856;6.076;2022-07-21T04:06:43;18.00;99.90
37594;DHT22;23441;50.856;6.076;2022-07-21T04:09:09;18.10;99.90
37594;DHT22;23441;50.856;6.076;2022-07-21T04:11:35;18.00;99.90
37594;DHT22;23441;50.856;6.076;2022-07-21T04:14:01;18.00;99.90
37594;DHT22;23441;50.856;6.076;2022-07-21T04:16:27;18.00;99.90
37594;DHT22;23441;50.856;6.076;2022-07-21T04:18:53;18.00;99.90
37594;DHT22;23441;50.856;6.076;2022-07-21T04:21:19;17.90;99.90
37594;DHT22;23441;50.856;6.076;2022-07-21T04:23:45;17.90;99.90
37594;DHT22;23441;50.856;6.076;2022-07-21T04:26:11;17.90;99.90
37594;DHT22;23441;50.856;6.076;2022-07-21T04:28:37;17.90;99.90
37594;DHT22;23441;50.856;6.076;2022-07-21T04:31:03;17.90;99.90
37594;DHT22;23441;50.856;6.076;2022-07-21T04:33:29;17.90;99.90
37594;DHT22;23441;50.856;6.076;2022-07-21T04:35:54;18.00;99.90
37594;DHT22;23441;50.856;6.076;2022-07-21T04:38:20;18.00;99.90
37594;DHT22;23441;50.856;6.076;2022-07-21T04:40:46;18.00;99.90
37594;DHT22;23441;50.856;6.076;2022-07-21T04:43:12;18.10;99.90
37594;DHT22;23441;50.856;6.076;2022-07-21T04:45:38;18.10;99.90
37594;DHT22;23441;50.856;6.076;2022-07-21T04:48:04;18.10;99.90
37594;DHT22;23441;50.856;6.076;2022-07-21T04:50:30;18.10;99.90
37594;DHT22;23441;50.856;6.076;2022-07-21T04:52:57;18.20;99.90
37594;DHT22;23441;50.856;6.076;2022-07-21T04:55:25;18.20;99.90
37594;DHT22;23441;50.856;6.076;2022-07-21T04:57:53;18.30;99.90
37594;DHT22;23441;50.856;6.076;2022-07-21T05:00:21;18.30;99.90
37594;DHT22;23441;50.856;6.076;2022-07-21T05:02:49;18.30;99.90
37594;DHT22;23441;50.856;6.076;2022-07-21T05:05:16;18.30;99.90
37594;DHT22;23441;50.856;6.076;2022-07-21T05:07:42;18.30;99.90
37594;DHT22;23441;50.856;6.076;2022-07-21T05:10:11;18.30;99.90
37594;DHT22;23441;50.856;6.076;2022-07-21T05:12:38;18.30;99.90
37594;DHT22;23441;50.856;6.076;2022-07-21T05:15:05;18.40;99.90
37594;DHT22;23441;50.856;6.076;2022-07-21T05:17:33;18.40;99.90
37594;DHT22;23441;50.856;6.076;2022-07-21T05:20:00;18.40;99.90
37594;DHT22;23441;50.856;6.076;2022-07-21T05:22:27;18.50;99.90
37594;DHT22;23441;50.856;6.076;2022-07-21T05:24:53;18.70;99.90
37594;DHT22;23441;50.856;6.076;2022-07-21T05:27:19;19.20;99.90
37594;DHT22;23441;50.856;6.076;2022-07-21T05:29:45;19.50;99.90
37594;DHT22;23441;50.856;6.076;2022-07-21T05:32:11;19.60;99.90
37594;DHT22;23441;50.856;6.076;2022-07-21T05:34:37;19.60;99.90
37594;DHT22;23441;50.856;6.076;2022-07-21T05:37:02;19.50;99.90
37594;DHT22;23441;50.856;6.076;2022-07-21T05:39:29;19.80;99.90
37594;DHT22;23441;50.856;6.076;2022-07-21T05:41:55;20.10;99.90
37594;DHT22;23441;50.856;6.076;2022-07-21T05:44:21;20.40;99.90
37594;DHT22;23441;50.856;6.076;2022-07-21T05:46:47;20.50;99.90
37594;DHT22;23441;50.856;6.076;2022-07-21T05:49:13;20.40;99.90
37594;DHT22;23441;50.856;6.076;2022-07-21T05:51:38;20.20;99.90
37594;DHT22;23441;50.856;6.076;2022-07-21T05:54:04;20.30;99.90
37594;DHT22;23441;50.856;6.076;2022-07-21T05:56:30;20.30;99.90
37594;DHT22;23441;50.856;6.076;2022-07-21T05:58:56;20.20;99.90
37594;DHT22;23441;50.856;6.076;2022-07-21T06:01:22;20.20;99.90
37594;DHT22;23441;50.856;6.076;2022-07-21T06:03:49;20.30;99.90
37594;DHT22;23441;50.856;6.076;2022-07-21T06:06:17;20.20;99.90
37594;DHT22;23441;50.856;6.076;2022-07-21T06:08:46;20.20;99.90
37594;DHT22;23441;50.856;6.076;2022-07-21T06:11:19;20.00;99.90
37594;DHT22;23441;50.856;6.076;2022-07-21T06:13:46;20.00;99.90
37594;DHT22;23441;50.856;6.076;2022-07-21T06:16:13;20.00;99.90
37594;DHT22;23441;50.856;6.076;2022-07-21T06:18:39;19.90;99.90
37594;DHT22;23441;50.856;6.076;2022-07-21T06:21:05;19.80;99.90
37594;DHT22;23441;50.856;6.076;2022-07-21T06:23:31;19.80;99.90
37594;DHT22;23441;50.856;6.076;2022-07-21T06:25:57;19.70;99.90
37594;DHT22;23441;50.856;6.076;2022-07-21T06:28:23;19.70;99.90
37594;DHT22;23441;50.856;6.076;2022-07-21T06:30:50;19.60;99.90
37594;DHT22;23441;50.856;6.076;2022-07-21T06:33:16;19.60;99.90
37594;DHT22;23441;50.856;6.076;2022-07-21T06:35:42;19.70;99.90
37594;DHT22;23441;50.856;6.076;2022-07-21T06:38:09;19.80;99.90
37594;DHT22;23441;50.856;6.076;2022-07-21T06:40:36;20.00;99.90
37594;DHT22;23441;50.856;6.076;2022-07-21T06:43:01;20.10;99.90
37594;DHT22;23441;50.856;6.076;2022-07-21T06:45:28;20.10;99.90
37594;DHT22;23441;50.856;6.076;2022-07-21T06:48:07;20.00;99.90
37594;DHT22;23441;50.856;6.076;2022-07-21T06:50:34;20.00;99.90
37594;DHT22;23441;50.856;6.076;2022-07-21T06:53:01;20.10;99.90
37594;DHT22;23441;50.856;6.076;2022-07-21T06:55:27;20.20;99.90
37594;DHT22;23441;50.856;6.076;2022-07-21T06:57:53;20.30;99.90
37594;DHT22;23441;50.856;6.076;2022-07-21T07:00:20;20.70;99.90
37594;DHT22;23441;50.856;6.076;2022-07-21T07:02:46;21.10;99.90
37594;DHT22;23441;50.856;6.076;2022-07-21T07:05:12;21.50;99.90
37594;DHT22;23441;50.856;6.076;2022-07-21T07:07:38;22.30;99.90
37594;DHT22;23441;50.856;6.076;2022-07-21T07:10:05;22.90;99.90
37594;DHT22;23441;50.856;6.076;2022-07-21T07:12:32;22.50;99.90
37594;DHT22;23441;50.856;6.076;2022-07-21T07:14:58;22.00;99.90
37594;DHT22;23441;50.856;6.076;2022-07-21T07:17:24;21.60;99.90
37594;DHT22;23441;50.856;6.076;2022-07-21T07:19:50;21.20;99.90
37594;DHT22;23441;50.856;6.076;2022-07-21T07:22:16;20.80;99.90
37594;DHT22;23441;50.856;6.076;2022-07-21T07:24:42;20.60;99.90
37594;DHT22;23441;50.856;6.076;2022-07-21T07:27:08;20.60;99.90
37594;DHT22;23441;50.856;6.076;2022-07-21T07:29:34;20.50;99.90
37594;DHT22;23441;50.856;6.076;2022-07-21T07:32:01;20.50;99.90
37594;DHT22;23441;50.856;6.076;2022-07-21T07:34:27;20.40;99.90
37594;DHT22;23441;50.856;6.076;2022-07-21T07:36:53;20.50;99.90
37594;DHT22;23441;50.856;6.076;2022-07-21T07:39:19;20.70;99.90
37594;DHT22;23441;50.856;6.076;2022-07-21T07:41:45;21.00;99.90
37594;DHT22;23441;50.856;6.076;2022-07-21T07:44:11;21.20;99.90
37594;DHT22;23441;50.856;6.076;2022-07-21T07:46:37;21.40;99.90
37594;DHT22;23441;50.856;6.076;2022-07-21T07:49:03;21.30;99.90
37594;DHT22;23441;50.856;6.076;2022-07-21T07:51:29;21.30;99.90
37594;DHT22;23441;50.856;6.076;2022-07-21T07:53:55;21.30;99.90
37594;DHT22;23441;50.856;6.076;2022-07-21T07:56:21;21.40;99.90
37594;DHT22;23441;50.856;6.076;2022-07-21T07:58:47;21.60;99.90
37594;DHT22;23441;50.856;6.076;2022-07-21T08:01:13;21.20;99.90
37594;DHT22;23441;50.856;6.076;2022-07-21T08:03:41;21.20;99.90
37594;DHT22;23441;50.856;6.076;2022-07-21T08:06:07;21.30;99.90
37594;DHT22;23441;50.856;6.076;2022-07-21T08:08:33;21.30;99.90
37594;DHT22;23441;50.856;6.076;2022-07-21T08:10:59;21.50;99.90
37594;DHT22;23441;50.856;6.076;2022-07-21T08:13:26;21.50;99.90
37594;DHT22;23441;50.856;6.076;2022-07-21T08:15:51;21.50;99.90
37594;DHT22;23441;50.856;6.076;2022-07-21T08:18:18;21.40;99.90
37594;DHT22;23441;50.856;6.076;2022-07-21T08:20:46;21.20;99.90
37594;DHT22;23441;50.856;6.076;2022-07-21T08:23:13;21.30;99.90
37594;DHT22;23441;50.856;6.076;2022-07-21T08:25:40;21.40;99.90
37594;DHT22;23441;50.856;6.076;2022-07-21T08:28:06;21.80;99.90
37594;DHT22;23441;50.856;6.076;2022-07-21T08:30:33;22.60;99.90
37594;DHT22;23441;50.856;6.076;2022-07-21T08:32:59;22.80;99.90
37594;DHT22;23441;50.856;6.076;2022-07-21T08:35:25;22.70;99.90
37594;DHT22;23441;50.856;6.076;2022-07-21T08:37:59;22.30;99.90
37594;DHT22;23441;50.856;6.076;2022-07-21T08:40:30;22.10;99.90
37594;DHT22;23441;50.856;6.076;2022-07-21T08:42:57;22.30;99.90
37594;DHT22;23441;50.856;6.076;2022-07-21T08:45:23;22.50;99.90
37594;DHT22;23441;50.856;6.076;2022-07-21T08:47:55;22.30;99.90
37594;DHT22;23441;50.856;6.076;2022-07-21T08:50:27;22.30;99.90
37594;DHT22;23441;50.856;6.076;2022-07-21T08:52:55;22.20;99.90
37594;DHT22;23441;50.856;6.076;2022-07-21T08:55:21;21.80;99.90
37594;DHT22;23441;50.856;6.076;2022-07-21T08:57:47;21.60;99.90
37594;DHT22;23441;50.856;6.076;2022-07-21T09:00:13;21.60;99.90
37594;DHT22;23441;50.856;6.076;2022-07-21T09:02:40;21.40;99.90
37594;DHT22;23441;50.856;6.076;2022-07-21T09:05:07;21.50;99.90
37594;DHT22;23441;50.856;6.076;2022-07-21T09:07:52;21.40;99.90
37594;DHT22;23441;50.856;6.076;2022-07-21T09:10:29;21.20;99.90
37594;DHT22;23441;50.856;6.076;2022-07-21T09:13:02;21.10;99.90
37594;DHT22;23441;50.856;6.076;2022-07-21T09:15:30;21.10;99.90
37594;DHT22;23441;50.856;6.076;2022-07-21T09:18:14;21.10;99.90
37594;DHT22;23441;50.856;6.076;2022-07-21T09:20:52;21.00;99.90
37594;DHT22;23441;50.856;6.076;2022-07-21T09:23:22;20.80;99.90
37594;DHT22;23441;50.856;6.076;2022-07-21T09:25:56;20.70;99.90
37594;DHT22;23441;50.856;6.076;2022-07-21T09:28:28;20.60;99.90
37594;DHT22;23441;50.856;6.076;2022-07-21T09:31:02;20.40;99.90
37594;DHT22;23441;50.856;6.076;2022-07-21T09:33:31;20.40;99.90
37594;DHT22;23441;50.856;6.076;2022-07-21T09:36:07;20.30;99.90
37594;DHT22;23441;50.856;6.076;2022-07-21T09:38:52;20.20;99.90
37594;DHT22;23441;50.856;6.076;2022-07-21T09:41:23;20.10;99.90
37594;DHT22;23441;50.856;6.076;2022-07-21T09:43:55;20.00;99.90
37594;DHT22;23441;50.856;6.076;2022-07-21T09:46:28;20.00;99.90
37594;DHT22;23441;50.856;6.076;2022-07-21T09:48:58;19.90;99.90
37594;DHT22;23441;50.856;6.076;2022-07-21T09:51:29;19.80;99.90
37594;DHT22;23441;50.856;6.076;2022-07-21T09:54:00;19.90;99.90
37594;DHT22;23441;50.856;6.076;2022-07-21T09:56:32;20.00;99.90
37594;DHT22;23441;50.856;6.076;2022-07-21T09:59:01;19.90;99.90
37594;DHT22;23441;50.856;6.076;2022-07-21T10:01:28;20.00;99.90
37594;DHT22;23441;50.856;6.076;2022-07-21T10:03:57;20.00;99.90
37594;DHT22;23441;50.856;6.076;2022-07-21T10:06:35;19.90;99.90
37594;DHT22;23441;50.856;6.076;2022-07-21T10:09:04;19.80;99.90
37594;DHT22;23441;50.856;6.076;2022-07-21T10:11:31;19.80;99.90
37594;DHT22;23441;50.856;6.076;2022-07-21T10:13:57;19.60;99.90
37594;DHT22;23441;50.856;6.076;2022-07-21T10:16:24;19.40;99.90
37594;DHT22;23441;50.856;6.076;2022-07-21T10:21:51;19.50;99.90
37594;DHT22;23441;50.856;6.076;2022-07-21T10:24:35;19.50;99.90
37594;DHT22;23441;50.856;6.076;2022-07-21T10:27:12;19.20;99.90
37594;DHT22;23441;50.856;6.076;2022-07-21T10:32:15;19.10;99.90
37594;DHT22;23441;50.856;6.076;2022-07-21T10:34:43;19.00;99.90
37594;DHT22;23441;50.856;6.076;2022-07-21T10:37:09;18.90;99.90
37594;DHT22;23441;50.856;6.076;2022-07-21T10:39:37;18.90;99.90
37594;DHT22;23441;50.856;6.076;2022-07-21T10:42:15;18.80;99.90
37594;DHT22;23441;50.856;6.076;2022-07-21T10:44:44;18.70;99.90
37594;DHT22;23441;50.856;6.076;2022-07-21T10:47:16;18.80;99.90
37594;DHT22;23441;50.856;6.076;2022-07-21T10:57:44;18.60;99.90
37594;DHT22;23441;50.856;6.076;2022-07-21T11:00:20;18.60;99.90
37594;DHT22;23441;50.856;6.076;2022-07-21T11:05:25;18.40;99.90
37594;DHT22;23441;50.856;6.076;2022-07-21T11:10:52;18.50;99.90
37594;DHT22;23441;50.856;6.076;2022-07-21T11:13:21;18.50;99.90
37594;DHT22;23441;50.856;6.076;2022-07-21T11:15:57;18.60;99.90
37594;DHT22;23441;50.856;6.076;2022-07-21T11:18:27;18.60;99.90
37594;DHT22;23441;50.856;6.076;2022-07-21T11:21:12;18.60;99.90
37594;DHT22;23441;50.856;6.076;2022-07-21T11:23:49;18.70;99.90
37594;DHT22;23441;50.856;6.076;2022-07-21T11:26:17;18.70;99.90
37594;DHT22;23441;50.856;6.076;2022-07-21T11:28:45;18.60;99.90
37594;DHT22;23441;50.856;6.076;2022-07-21T11:31:14;18.50;99.90
37594;DHT22;23441;50.856;6.076;2022-07-21T11:33:48;18.60;99.90
37594;DHT22;23441;50.856;6.076;2022-07-21T11:36:29;18.50;99.90
37594;DHT22;23441;50.856;6.076;2022-07-21T11:39:02;18.50;99.90
37594;DHT22;23441;50.856;6.076;2022-07-21T11:41:30;18.50;99.90
37594;DHT22;23441;50.856;6.076;2022-07-21T11:43:56;18.50;99.90
37594;DHT22;23441;50.856;6.076;2022-07-21T11:46:22;18.50;99.90
37594;DHT22;23441;50.856;6.076;2022-07-21T11:48:48;18.50;99.90
37594;DHT22;23441;50.856;6.076;2022-07-21T11:51:26;18.50;99.90
37594;DHT22;23441;50.856;6.076;2022-07-21T11:53:51;18.50;99.90
37594;DHT22;23441;50.856;6.076;2022-07-21T11:56:18;18.50;99.90
37594;DHT22;23441;50.856;6.076;2022-07-21T11:58:44;18.40;99.90
37594;DHT22;23441;50.856;6.076;2022-07-21T12:01:10;18.50;99.90
37594;DHT22;23441;50.856;6.076;2022-07-21T12:03:50;18.50;99.90
37594;DHT22;23441;50.856;6.076;2022-07-21T12:06:17;18.50;99.90
37594;DHT22;23441;50.856;6.076;2022-07-21T12:08:44;18.50;99.90
37594;DHT22;23441;50.856;6.076;2022-07-21T12:11:10;18.50;99.90
37594;DHT22;23441;50.856;6.076;2022-07-21T12:13:58;18.60;99.90
37594;DHT22;23441;50.856;6.076;2022-07-21T12:16:25;18.60;99.90
37594;DHT22;23441;50.856;6.076;2022-07-21T12:19:10;18.70;99.90
37594;DHT22;23441;50.856;6.076;2022-07-21T12:21:50;18.60;99.90
37594;DHT22;23441;50.856;6.076;2022-07-21T12:24:18;18.60;99.90
37594;DHT22;23441;50.856;6.076;2022-07-21T12:26:45;18.50;99.90
37594;DHT22;23441;50.856;6.076;2022-07-21T12:29:29;18.30;99.90
37594;DHT22;23441;50.856;6.076;2022-07-21T12:31:55;18.20;99.90
37594;DHT22;23441;50.856;6.076;2022-07-21T12:34:22;18.20;99.90
37594;DHT22;23441;50.856;6.076;2022-07-21T12:36:49;18.10;99.90
37594;DHT22;23441;50.856;6.076;2022-07-21T12:39:24;18.10;99.90
37594;DHT22;23441;50.856;6.076;2022-07-21T12:42:29;18.00;99.90
37594;DHT22;23441;50.856;6.076;2022-07-21T12:45:12;18.00;99.90
37594;DHT22;23441;50.856;6.076;2022-07-21T12:47:39;18.00;99.90
37594;DHT22;23441;50.856;6.076;2022-07-21T12:50:13;18.10;99.90
37594;DHT22;23441;50.856;6.076;2022-07-21T12:52:40;18.20;99.90
37594;DHT22;23441;50.856;6.076;2022-07-21T12:55:07;18.10;99.90
37594;DHT22;23441;50.856;6.076;2022-07-21T12:57:34;18.10;99.90
37594;DHT22;23441;50.856;6.076;2022-07-21T13:00:00;18.20;99.90
37594;DHT22;23441;50.856;6.076;2022-07-21T13:02:27;18.20;99.90
37594;DHT22;23441;50.856;6.076;2022-07-21T13:04:55;18.20;99.90
37594;DHT22;23441;50.856;6.076;2022-07-21T13:07:21;18.20;99.90
37594;DHT22;23441;50.856;6.076;2022-07-21T13:09:47;18.20;99.90
37594;DHT22;23441;50.856;6.076;2022-07-21T13:12:13;18.20;99.90
37594;DHT22;23441;50.856;6.076;2022-07-21T13:14:40;18.20;99.90
37594;DHT22;23441;50.856;6.076;2022-07-21T13:17:07;18.20;99.90
37594;DHT22;23441;50.856;6.076;2022-07-21T13:19:34;18.30;99.90
37594;DHT22;23441;50.856;6.076;2022-07-21T13:22:04;18.30;99.90
37594;DHT22;23441;50.856;6.076;2022-07-21T13:24:30;18.30;99.90
37594;DHT22;23441;50.856;6.076;2022-07-21T13:26:56;18.30;99.90
37594;DHT22;23441;50.856;6.076;2022-07-21T13:29:22;18.30;99.90
37594;DHT22;23441;50.856;6.076;2022-07-21T13:31:48;18.30;99.90
37594;DHT22;23441;50.856;6.076;2022-07-21T13:34:14;18.30;99.90
37594;DHT22;23441;50.856;6.076;2022-07-21T13:36:40;18.30;99.90
37594;DHT22;23441;50.856;6.076;2022-07-21T13:39:06;18.30;99.90
37594;DHT22;23441;50.856;6.076;2022-07-21T13:41:33;18.40;99.90
37594;DHT22;23441;50.856;6.076;2022-07-21T13:43:59;18.40;99.90
37594;DHT22;23441;50.856;6.076;2022-07-21T13:46:26;18.40;99.90
37594;DHT22;23441;50.856;6.076;2022-07-21T13:48:53;18.40;99.90
37594;DHT22;23441;50.856;6.076;2022-07-21T13:51:20;18.50;99.90
37594;DHT22;23441;50.856;6.076;2022-07-21T13:53:48;18.50;99.90
37594;DHT22;23441;50.856;6.076;2022-07-21T13:56:16;18.40;99.90
37594;DHT22;23441;50.856;6.076;2022-07-21T13:58:43;18.30;99.90
37594;DHT22;23441;50.856;6.076;2022-07-21T14:01:11;18.30;99.90
37594;DHT22;23441;50.856;6.076;2022-07-21T14:03:39;18.20;99.90
37594;DHT22;23441;50.856;6.076;2022-07-21T14:06:06;18.30;99.90
37594;DHT22;23441;50.856;6.076;2022-07-21T14:08:32;18.30;99.90
37594;DHT22;23441;50.856;6.076;2022-07-21T14:10:58;18.20;99.90
37594;DHT22;23441;50.856;6.076;2022-07-21T14:13:24;18.30;99.90
37594;DHT22;23441;50.856;6.076;2022-07-21T14:15:50;18.40;99.90
37594;DHT22;23441;50.856;6.076;2022-07-21T14:18:16;18.50;99.90
37594;DHT22;23441;50.856;6.076;2022-07-21T14:20:42;18.70;99.90
37594;DHT22;23441;50.856;6.076;2022-07-21T14:23:08;18.70;99.90
37594;DHT22;23441;50.856;6.076;2022-07-21T14:25:34;18.70;99.90
37594;DHT22;23441;50.856;6.076;2022-07-21T14:28:00;18.80;99.90
37594;DHT22;23441;50.856;6.076;2022-07-21T14:30:27;18.70;99.90
37594;DHT22;23441;50.856;6.076;2022-07-21T14:32:54;18.60;99.90
37594;DHT22;23441;50.856;6.076;2022-07-21T14:35:21;18.50;99.90
37594;DHT22;23441;50.856;6.076;2022-07-21T14:37:48;18.40;99.90
37594;DHT22;23441;50.856;6.076;2022-07-21T14:40:16;18.50;99.90
37594;DHT22;23441;50.856;6.076;2022-07-21T14:42:43;18.60;99.90
37594;DHT22;23441;50.856;6.076;2022-07-21T14:45:11;18.60;99.90
37594;DHT22;23441;50.856;6.076;2022-07-21T14:47:37;18.50;99.90
37594;DHT22;23441;50.856;6.076;2022-07-21T14:50:04;18.40;99.90
37594;DHT22;23441;50.856;6.076;2022-07-21T14:52:30;18.40;99.90
37594;DHT22;23441;50.856;6.076;2022-07-21T14:54:56;18.60;99.90
37594;DHT22;23441;50.856;6.076;2022-07-21T14:57:22;18.90;99.90
37594;DHT22;23441;50.856;6.076;2022-07-21T14:59:48;18.90;99.90
37594;DHT22;23441;50.856;6.076;2022-07-21T15:02:15;19.00;99.90
37594;DHT22;23441;50.856;6.076;2022-07-21T15:04:42;19.00;99.90
37594;DHT22;23441;50.856;6.076;2022-07-21T15:07:08;19.10;99.90
37594;DHT22;23441;50.856;6.076;2022-07-21T15:09:34;19.00;99.90
37594;DHT22;23441;50.856;6.076;2022-07-21T15:12:00;19.00;99.90
37594;DHT22;23441;50.856;6.076;2022-07-21T15:14:26;19.00;99.90
37594;DHT22;23441;50.856;6.076;2022-07-21T15:16:52;18.90;99.90
37594;DHT22;23441;50.856;6.076;2022-07-21T15:19:18;18.90;99.90
37594;DHT22;23441;50.856;6.076;2022-07-21T15:21:44;18.90;99.90
37594;DHT22;23441;50.856;6.076;2022-07-21T15:24:09;18.80;99.90
37594;DHT22;23441;50.856;6.076;2022-07-21T15:26:35;18.80;99.90
37594;DHT22;23441;50.856;6.076;2022-07-21T15:29:01;18.70;99.90
37594;DHT22;23441;50.856;6.076;2022-07-21T15:31:30;18.60;99.90
37594;DHT22;23441;50.856;6.076;2022-07-21T15:33:57;18.50;99.90
37594;DHT22;23441;50.856;6.076;2022-07-21T15:36:23;18.50;99.90
37594;DHT22;23441;50.856;6.076;2022-07-21T15:38:49;18.40;99.90
37594;DHT22;23441;50.856;6.076;2022-07-21T15:41:15;18.50;99.90
37594;DHT22;23441;50.856;6.076;2022-07-21T15:43:43;18.40;99.90
37594;DHT22;23441;50.856;6.076;2022-07-21T15:46:09;18.30;99.90
37594;DHT22;23441;50.856;6.076;2022-07-21T15:48:35;18.30;99.90
37594;DHT22;23441;50.856;6.076;2022-07-21T15:51:01;18.20;99.90
37594;DHT22;23441;50.856;6.076;2022-07-21T15:53:28;18.20;99.90